createdAt,value
2018-03-26T00:01:38.586Z,24.83
2018-03-26T00:04:12.404Z,26.42
2018-03-26T00:06:40.887Z,24.83
2018-03-26T00:09:09.353Z,15.50
2018-03-26T00:11:37.928Z,16.07
2018-03-26T00:14:09.497Z,16.33
2018-03-26T00:16:38.657Z,15.47
2018-03-26T00:19:07.088Z,21.43
2018-03-26T00:21:35.471Z,20.27
2018-03-26T00:24:04.640Z,13.87
2018-03-26T00:26:34.645Z,21.27
2018-03-26T00:29:03.117Z,21.77
2018-03-26T00:31:31.688Z,25.62
2018-03-26T00:34:00.125Z,16.40
2018-03-26T00:36:29.298Z,24.90
2018-03-26T00:38:57.899Z,15.27
2018-03-26T00:41:26.385Z,18.70
2018-03-26T00:43:54.778Z,20.87
2018-03-26T00:46:23.279Z,33.57
2018-03-26T00:48:55.996Z,21.12
2018-03-26T00:51:24.451Z,20.30
2018-03-26T00:53:52.882Z,19.53
2018-03-26T00:56:21.283Z,24.23
2018-03-26T00:58:49.767Z,20.97
2018-03-26T01:01:18.212Z,18.60
2018-03-26T01:03:46.647Z,23.67
2018-03-26T01:06:18.190Z,24.80
2018-03-26T01:08:46.777Z,18.70
2018-03-26T01:11:16.027Z,17.03
2018-03-26T01:13:44.503Z,25.50
2018-03-26T01:16:13.668Z,15.07
2018-03-26T01:18:42.805Z,15.27
2018-03-26T01:21:11.230Z,14.67
2018-03-26T01:23:39.836Z,15.57
2018-03-26T01:26:08.281Z,16.97
2018-03-26T01:28:36.911Z,21.10
2018-03-26T01:31:05.533Z,18.07
2018-03-26T01:33:39.374Z,17.58
2018-03-26T01:36:07.901Z,19.30
2018-03-26T01:38:36.360Z,25.52
2018-03-26T01:41:05.788Z,21.70
2018-03-26T01:43:34.183Z,20.77
2018-03-26T01:46:02.590Z,21.67
2018-03-26T01:48:31.050Z,21.13
2018-03-26T01:51:00.203Z,21.40
2018-03-26T01:53:28.931Z,17.03
2018-03-26T01:55:57.566Z,20.73
2018-03-26T01:58:26.018Z,20.70
2018-03-26T02:00:54.441Z,21.25
2018-03-26T02:03:23.058Z,21.50
2018-03-26T02:05:52.395Z,23.13
2018-03-26T02:08:20.905Z,20.43
2018-03-26T02:10:50.120Z,21.73
2018-03-26T02:13:19.355Z,21.87
2018-03-26T02:15:47.785Z,21.13
2018-03-26T02:18:17.595Z,22.33
2018-03-26T02:20:46.172Z,23.73
2018-03-26T02:23:14.602Z,25.37
2018-03-26T02:25:43.779Z,20.83
2018-03-26T02:28:12.369Z,22.33
2018-03-26T02:30:41.607Z,19.57
2018-03-26T02:33:10.189Z,23.83
2018-03-26T02:35:38.578Z,21.20
2018-03-26T02:38:07.040Z,22.13
2018-03-26T02:40:36.842Z,21.17
2018-03-26T02:43:05.409Z,21.80
2018-03-26T02:45:34.997Z,21.53
2018-03-26T02:48:13.980Z,22.90
2018-03-26T02:50:42.412Z,16.33
2018-03-26T02:53:11.572Z,18.67
2018-03-26T02:55:40.161Z,18.60
2018-03-26T02:58:08.578Z,19.27
2018-03-26T03:00:37.024Z,16.77
2018-03-26T03:03:05.464Z,19.07
2018-03-26T03:05:34.073Z,20.27
2018-03-26T03:08:02.507Z,22.17
2018-03-26T03:10:30.915Z,20.00
2018-03-26T03:13:00.320Z,20.73
2018-03-26T03:15:28.751Z,19.37
2018-03-26T03:17:57.967Z,16.10
2018-03-26T03:20:26.393Z,18.83
2018-03-26T03:22:58.019Z,19.90
2018-03-26T03:25:26.457Z,20.92
2018-03-26T03:27:54.918Z,18.73
2018-03-26T03:30:24.320Z,19.40
2018-03-26T03:32:53.519Z,19.30
2018-03-26T03:35:22.388Z,21.23
2018-03-26T03:37:51.579Z,16.60
2018-03-26T03:40:20.009Z,17.17
2018-03-26T03:42:48.513Z,16.43
2018-03-26T03:45:22.401Z,19.07
2018-03-26T03:47:52.127Z,17.10
2018-03-26T03:50:20.560Z,17.47
2018-03-26T03:52:49.018Z,17.53
2018-03-26T03:55:17.467Z,20.27
2018-03-26T03:57:46.612Z,18.97
2018-03-26T04:00:15.064Z,18.77
2018-03-26T04:02:43.505Z,19.67
2018-03-26T04:05:16.538Z,19.23
2018-03-26T04:07:44.924Z,14.47
2018-03-26T04:10:16.962Z,17.60
2018-03-26T04:12:45.375Z,17.97
2018-03-26T04:15:13.759Z,16.65
2018-03-26T04:17:43.154Z,18.50
2018-03-26T04:20:11.756Z,14.10
2018-03-26T04:22:41.040Z,15.30
2018-03-26T04:25:11.127Z,15.73
2018-03-26T04:27:39.580Z,15.93
2018-03-26T04:30:08.210Z,17.70
2018-03-26T04:32:42.023Z,16.00
2018-03-26T04:35:10.961Z,17.50
2018-03-26T04:37:39.421Z,16.10
2018-03-26T04:40:08.692Z,17.23
2018-03-26T04:42:37.137Z,16.83
2018-03-26T04:45:05.550Z,16.37
2018-03-26T04:47:33.972Z,15.67
2018-03-26T04:50:02.408Z,16.43
2018-03-26T04:52:30.859Z,14.83
2018-03-26T04:54:59.326Z,15.23
2018-03-26T04:57:33.233Z,13.43
2018-03-26T05:00:01.858Z,14.80
2018-03-26T05:02:30.282Z,12.83
2018-03-26T05:04:58.873Z,16.10
2018-03-26T05:07:27.256Z,13.73
2018-03-26T05:09:56.065Z,12.53
2018-03-26T05:12:24.478Z,15.10
2018-03-26T05:14:53.684Z,14.50
2018-03-26T05:17:22.093Z,14.53
2018-03-26T05:19:51.972Z,16.10
2018-03-26T05:22:20.448Z,12.83
2018-03-26T05:24:49.102Z,11.97
2018-03-26T05:27:17.512Z,15.70
2018-03-26T05:29:45.944Z,16.80
2018-03-26T05:32:14.469Z,16.70
2018-03-26T05:34:43.054Z,14.60
2018-03-26T05:37:11.660Z,13.77
2018-03-26T05:39:40.113Z,14.57
2018-03-26T05:42:12.122Z,15.83
2018-03-26T05:44:40.745Z,15.20
2018-03-26T05:47:10.305Z,15.27
2018-03-26T05:49:38.744Z,14.85
2018-03-26T05:52:07.129Z,13.97
2018-03-26T05:54:37.101Z,14.53
2018-03-26T05:57:05.691Z,13.90
2018-03-26T05:59:34.117Z,15.33
2018-03-26T06:02:02.558Z,14.53
2018-03-26T06:04:34.553Z,15.60
2018-03-26T06:07:03.137Z,15.30
2018-03-26T06:09:31.581Z,14.07
2018-03-26T06:12:00.030Z,14.75
2018-03-26T06:14:28.639Z,15.20
2018-03-26T06:17:09.815Z,15.50
2018-03-26T06:19:38.224Z,13.93
2018-03-26T06:22:06.641Z,15.03
2018-03-26T06:24:39.533Z,15.83
2018-03-26T06:27:07.955Z,15.07
2018-03-26T06:29:36.442Z,14.10
2018-03-26T06:32:04.839Z,13.90
2018-03-26T06:34:33.402Z,14.52
2018-03-26T06:37:17.537Z,16.13
2018-03-26T06:39:45.941Z,13.73
2018-03-26T06:42:14.399Z,14.73
2018-03-26T06:44:48.460Z,16.07
2018-03-26T06:47:17.813Z,14.70
2018-03-26T06:49:46.272Z,13.93
2018-03-26T06:52:14.669Z,16.97
2018-03-26T06:54:43.898Z,14.60
2018-03-26T06:57:12.315Z,15.35
2018-03-26T06:59:40.786Z,15.40
2018-03-26T07:02:09.226Z,15.63
2018-03-26T07:04:38.497Z,13.88
2018-03-26T07:07:12.154Z,14.80
2018-03-26T07:09:41.485Z,12.77
2018-03-26T07:12:09.887Z,14.93
2018-03-26T07:14:38.358Z,12.00
2018-03-26T07:17:06.772Z,13.23
2018-03-26T07:19:36.070Z,12.37
2018-03-26T07:22:04.491Z,14.43
2018-03-26T07:24:33.069Z,13.20
2018-03-26T07:27:02.399Z,13.77
2018-03-26T07:29:32.278Z,12.43
2018-03-26T07:32:00.712Z,10.73
2018-03-26T07:34:50.353Z,14.10
2018-03-26T07:37:18.777Z,14.10
2018-03-26T07:39:47.226Z,15.13
2018-03-26T07:42:16.387Z,12.15
2018-03-26T07:44:45.201Z,14.47
2018-03-26T07:47:13.691Z,11.73
2018-03-26T07:49:45.465Z,13.57
2018-03-26T07:52:14.789Z,12.90
2018-03-26T07:54:43.198Z,13.27
2018-03-26T07:57:11.616Z,14.30
2018-03-26T07:59:40.041Z,13.48
2018-03-26T08:02:09.301Z,13.33
2018-03-26T08:04:39.274Z,12.35
2018-03-26T08:07:07.899Z,13.43
2018-03-26T08:09:36.346Z,14.07
2018-03-26T08:12:04.758Z,13.83
2018-03-26T08:14:33.203Z,11.80
2018-03-26T08:17:01.713Z,11.47
2018-03-26T08:19:30.242Z,11.87
2018-03-26T08:21:58.622Z,10.90
2018-03-26T08:24:27.034Z,13.57
2018-03-26T08:26:55.599Z,11.37
2018-03-26T08:29:24.331Z,12.87
2018-03-26T08:31:52.722Z,12.67
2018-03-26T08:34:22.509Z,13.17
2018-03-26T08:36:50.955Z,12.90
2018-03-26T08:39:19.391Z,13.30
2018-03-26T08:41:47.812Z,12.30
2018-03-26T08:44:16.405Z,10.98
2018-03-26T08:46:44.830Z,12.37
2018-03-26T08:49:13.455Z,11.27
2018-03-26T08:51:41.848Z,11.23
2018-03-26T08:54:10.293Z,14.00
2018-03-26T08:56:44.156Z,11.02
2018-03-26T08:59:18.099Z,11.13
2018-03-26T09:01:46.718Z,12.27
2018-03-26T09:04:15.889Z,11.07
2018-03-26T09:06:44.372Z,11.23
2018-03-26T09:09:13.566Z,11.93
2018-03-26T09:11:44.001Z,9.98
2018-03-26T09:14:12.424Z,9.93
2018-03-26T09:16:40.993Z,9.23
2018-03-26T09:19:19.865Z,10.80
2018-03-26T09:21:53.748Z,9.90
2018-03-26T09:24:27.441Z,9.63
2018-03-26T09:26:58.330Z,9.87
2018-03-26T09:29:26.781Z,12.57
2018-03-26T09:31:56.877Z,10.37
2018-03-26T09:34:25.347Z,12.60
2018-03-26T09:36:54.541Z,9.43
2018-03-26T09:39:22.933Z,10.75
2018-03-26T09:41:51.374Z,9.10
2018-03-26T09:44:19.781Z,8.00
2018-03-26T09:46:48.218Z,9.27
2018-03-26T09:49:22.119Z,11.03
2018-03-26T09:51:51.196Z,9.83
2018-03-26T09:54:21.404Z,9.05
2018-03-26T09:56:49.980Z,9.63
2018-03-26T09:59:18.384Z,7.05
2018-03-26T10:01:53.242Z,9.10
2018-03-26T10:04:21.597Z,9.13
2018-03-26T10:06:50.788Z,8.80
2018-03-26T10:09:19.369Z,8.10
2018-03-26T10:11:47.969Z,8.20
2018-03-26T10:14:22.816Z,6.93
2018-03-26T10:16:51.294Z,7.25
2018-03-26T10:19:19.721Z,7.13
2018-03-26T10:21:48.479Z,5.95
2018-03-26T10:24:16.890Z,7.47
2018-03-26T10:26:46.156Z,7.03
2018-03-26T10:29:14.682Z,6.37
2018-03-26T10:31:43.249Z,6.00
2018-03-26T10:34:11.633Z,6.90
2018-03-26T10:36:45.658Z,5.17
2018-03-26T10:39:14.049Z,5.97
2018-03-26T10:41:42.612Z,6.27
2018-03-26T10:44:12.159Z,4.90
2018-03-26T10:46:40.580Z,4.23
2018-03-26T10:49:09.015Z,5.87
2018-03-26T10:51:45.858Z,4.10
2018-03-26T10:54:15.040Z,4.57
2018-03-26T10:56:43.410Z,4.30
2018-03-26T10:59:12.763Z,4.47
2018-03-26T11:01:41.333Z,4.63
2018-03-26T11:04:09.691Z,4.30
2018-03-26T11:06:38.112Z,4.70
2018-03-26T11:09:07.439Z,3.90
2018-03-26T11:11:36.079Z,4.00
2018-03-26T11:14:05.061Z,7.23
2018-03-26T11:16:35.407Z,4.67
2018-03-26T11:19:09.095Z,5.00
2018-03-26T11:21:42.771Z,4.73
2018-03-26T11:24:11.157Z,5.47
2018-03-26T11:26:40.300Z,4.50
2018-03-26T11:29:08.919Z,10.18
2018-03-26T11:31:37.324Z,4.30
2018-03-26T11:34:06.481Z,4.93
2018-03-26T11:36:34.931Z,5.17
2018-03-26T11:39:03.787Z,4.97
2018-03-26T11:41:32.223Z,4.87
2018-03-26T11:44:03.108Z,3.90
2018-03-26T11:46:31.545Z,5.20
2018-03-26T11:48:59.924Z,4.97
2018-03-26T11:51:28.465Z,3.93
2018-03-26T11:53:56.870Z,3.33
2018-03-26T11:56:25.465Z,2.93
2018-03-26T11:58:53.854Z,2.60
2018-03-26T12:01:23.095Z,2.17
2018-03-26T12:03:51.474Z,2.30
2018-03-26T12:06:20.085Z,2.60
2018-03-26T12:08:48.498Z,2.73
2018-03-26T12:11:16.888Z,2.57
2018-03-26T12:13:46.072Z,2.60
2018-03-26T12:16:14.642Z,3.20
2018-03-26T12:18:43.053Z,3.43
2018-03-26T12:21:11.464Z,3.17
2018-03-26T12:23:52.501Z,3.23
2018-03-26T12:26:24.252Z,2.90
2018-03-26T12:29:04.531Z,3.10
2018-03-26T12:31:33.736Z,4.37
2018-03-26T12:34:14.020Z,3.53
2018-03-26T12:36:43.209Z,4.17
2018-03-26T12:39:12.341Z,3.85
2018-03-26T12:41:40.931Z,4.07
2018-03-26T12:44:09.311Z,4.00
2018-03-26T12:46:44.881Z,3.63
2018-03-26T12:49:13.484Z,5.50
2018-03-26T12:51:53.765Z,3.63
2018-03-26T12:54:22.136Z,6.00
2018-03-26T12:57:02.451Z,3.70
2018-03-26T12:59:31.803Z,3.65
2018-03-26T13:02:12.031Z,2.77
2018-03-26T13:04:40.416Z,4.17
2018-03-26T13:07:10.324Z,3.03
2018-03-26T13:09:39.527Z,4.83
2018-03-26T13:12:08.077Z,4.05
2018-03-26T13:14:36.539Z,3.43
2018-03-26T13:17:04.958Z,2.90
2018-03-26T13:19:35.297Z,4.63
2018-03-26T13:22:03.702Z,2.73
2018-03-26T13:24:32.072Z,3.73
2018-03-26T13:27:00.474Z,4.60
2018-03-26T13:29:29.042Z,2.60
2018-03-26T13:31:57.571Z,6.73
2018-03-26T13:34:25.969Z,5.67
2018-03-26T13:36:55.008Z,5.53
2018-03-26T13:39:23.392Z,4.60
2018-03-26T13:41:51.858Z,4.53
2018-03-26T13:44:21.002Z,6.70
2018-03-26T13:46:49.439Z,4.53
2018-03-26T13:49:18.797Z,5.53
2018-03-26T13:51:53.472Z,3.97
2018-03-26T13:54:23.389Z,4.97
2018-03-26T13:56:51.770Z,4.80
2018-03-26T13:59:30.695Z,4.77
2018-03-26T14:01:59.291Z,3.23
2018-03-26T14:04:27.724Z,5.10
2018-03-26T14:06:56.163Z,3.87
2018-03-26T14:09:37.366Z,8.10
2018-03-26T14:12:17.619Z,3.27
2018-03-26T14:15:03.244Z,5.60
2018-03-26T14:17:43.561Z,5.23
2018-03-26T14:20:11.959Z,4.05
2018-03-26T14:22:41.301Z,3.45
2018-03-26T14:25:09.869Z,3.03
2018-03-26T14:27:38.426Z,4.70
2018-03-26T14:30:06.818Z,5.05
2018-03-26T14:32:35.179Z,3.00
2018-03-26T14:35:15.211Z,3.97
2018-03-26T14:37:44.527Z,5.67
2018-03-26T14:40:12.979Z,3.83
2018-03-26T14:42:41.366Z,3.50
2018-03-26T14:45:10.536Z,3.50
2018-03-26T14:47:38.918Z,4.13
2018-03-26T14:50:07.983Z,3.80
2018-03-26T14:52:36.405Z,4.33
2018-03-26T14:55:10.314Z,6.07
2018-03-26T14:57:45.220Z,3.40
2018-03-26T15:00:13.596Z,4.13
2018-03-26T15:02:42.044Z,5.70
2018-03-26T15:05:10.598Z,5.37
2018-03-26T15:07:38.952Z,3.73
2018-03-26T15:10:07.344Z,4.57
2018-03-26T15:12:35.740Z,3.47
2018-03-26T15:15:04.293Z,3.07
2018-03-26T15:17:32.989Z,3.85
2018-03-26T15:20:06.956Z,2.90
2018-03-26T15:22:39.790Z,3.25
2018-03-26T15:25:08.175Z,4.07
2018-03-26T15:27:36.552Z,3.33
2018-03-26T15:30:05.104Z,3.90
2018-03-26T15:32:33.537Z,5.00
2018-03-26T15:35:02.067Z,3.90
2018-03-26T15:37:30.426Z,5.20
2018-03-26T15:39:59.623Z,4.03
2018-03-26T15:42:27.988Z,3.90
2018-03-26T15:44:56.347Z,5.20
2018-03-26T15:47:24.764Z,3.03
2018-03-26T15:49:53.153Z,6.07
2018-03-26T15:52:21.556Z,4.63
2018-03-26T15:54:49.955Z,3.37
2018-03-26T15:57:18.355Z,6.33
2018-03-26T15:59:46.913Z,3.50
2018-03-26T16:02:15.937Z,3.53
2018-03-26T16:04:44.320Z,3.33
2018-03-26T16:07:18.936Z,3.20
2018-03-26T16:09:47.355Z,5.30
2018-03-26T16:12:15.731Z,3.30
2018-03-26T16:14:44.897Z,5.12
2018-03-26T16:17:13.310Z,3.33
2018-03-26T16:19:42.550Z,5.10
2018-03-26T16:22:10.982Z,4.00
2018-03-26T16:24:40.543Z,3.00
2018-03-26T16:27:09.101Z,3.80
2018-03-26T16:29:43.966Z,3.13
2018-03-26T16:32:17.460Z,4.07
2018-03-26T16:34:46.874Z,4.97
2018-03-26T16:37:15.280Z,6.13
2018-03-26T16:39:43.652Z,5.20
2018-03-26T16:42:21.611Z,5.45
2018-03-26T16:44:50.793Z,3.40
2018-03-26T16:47:19.155Z,4.10
2018-03-26T16:49:47.546Z,7.60
2018-03-26T16:52:15.934Z,5.47
2018-03-26T16:54:45.248Z,6.40
2018-03-26T16:57:13.799Z,4.87
2018-03-26T16:59:42.256Z,4.50
2018-03-26T17:02:11.323Z,6.87
2018-03-26T17:04:39.706Z,5.07
2018-03-26T17:07:08.255Z,6.50
2018-03-26T17:09:36.811Z,4.93
2018-03-26T17:12:05.214Z,5.65
2018-03-26T17:14:35.980Z,7.77
2018-03-26T17:17:04.555Z,4.67
2018-03-26T17:19:33.136Z,3.33
2018-03-26T17:22:01.628Z,4.33
2018-03-26T17:24:30.020Z,4.90
2018-03-26T17:26:58.383Z,3.53
2018-03-26T17:29:27.724Z,3.47
2018-03-26T17:31:56.126Z,4.30
2018-03-26T17:34:24.480Z,3.93
2018-03-26T17:36:58.232Z,3.53
2018-03-26T17:39:26.643Z,4.47
2018-03-26T17:41:55.009Z,6.97
2018-03-26T17:44:23.408Z,4.50
2018-03-26T17:46:51.782Z,4.27
2018-03-26T17:49:20.162Z,4.87
2018-03-26T17:51:48.564Z,5.50
2018-03-26T17:54:16.942Z,3.70
2018-03-26T17:56:45.377Z,8.23
2018-03-26T17:59:15.187Z,3.77
2018-03-26T18:01:43.573Z,4.23
2018-03-26T18:04:14.052Z,6.90
2018-03-26T18:06:42.630Z,4.90
2018-03-26T18:09:11.759Z,5.90
2018-03-26T18:12:00.527Z,5.47
2018-03-26T18:14:28.896Z,4.53
2018-03-26T18:16:57.459Z,5.80
2018-03-26T18:19:31.183Z,6.23
2018-03-26T18:22:03.094Z,7.20
2018-03-26T18:24:32.400Z,5.20
2018-03-26T18:27:00.752Z,6.83
2018-03-26T18:29:29.319Z,6.43
2018-03-26T18:31:57.818Z,4.67
2018-03-26T18:34:26.179Z,5.97
2018-03-26T18:36:55.523Z,6.12
2018-03-26T18:39:24.073Z,6.63
2018-03-26T18:41:52.528Z,4.90
2018-03-26T18:44:20.907Z,4.57
2018-03-26T18:46:49.335Z,3.60
2018-03-26T18:49:18.847Z,5.53
2018-03-26T18:51:48.160Z,4.87
2018-03-26T18:54:17.398Z,4.90
2018-03-26T18:56:45.931Z,3.83
2018-03-26T18:59:14.604Z,3.00
2018-03-26T19:01:42.988Z,2.77
2018-03-26T19:04:12.195Z,2.90
2018-03-26T19:06:42.754Z,4.20
2018-03-26T19:09:11.152Z,5.25
2018-03-26T19:11:39.687Z,5.17
2018-03-26T19:14:08.820Z,4.97
2018-03-26T19:16:37.262Z,3.00
2018-03-26T19:19:06.542Z,4.50
2018-03-26T19:21:34.895Z,3.87
2018-03-26T19:24:03.307Z,4.43
2018-03-26T19:26:32.249Z,2.73
2018-03-26T19:29:07.773Z,4.93
2018-03-26T19:31:37.286Z,5.13
2018-03-26T19:34:06.427Z,7.10
2018-03-26T19:36:34.837Z,3.83
2018-03-26T19:39:03.231Z,4.17
2018-03-26T19:41:31.779Z,4.23
2018-03-26T19:44:00.180Z,4.50
2018-03-26T19:46:29.499Z,5.87
2018-03-26T19:48:57.864Z,2.70
2018-03-26T19:51:27.169Z,6.20
2018-03-26T19:53:55.556Z,3.80
2018-03-26T19:56:23.971Z,2.77
2018-03-26T19:58:52.314Z,5.47
2018-03-26T20:01:21.641Z,4.57
2018-03-26T20:03:50.042Z,2.90
2018-03-26T20:06:18.407Z,4.62
2018-03-26T20:08:46.794Z,7.07
2018-03-26T20:11:15.215Z,6.05
2018-03-26T20:13:43.604Z,3.90
2018-03-26T20:16:11.998Z,4.13
2018-03-26T20:18:40.408Z,2.87
2018-03-26T20:21:08.862Z,5.27
2018-03-26T20:23:37.216Z,5.83
2018-03-26T20:26:05.622Z,4.27
2018-03-26T20:28:34.225Z,4.07
2018-03-26T20:31:02.810Z,3.47
2018-03-26T20:33:36.549Z,4.03
2018-03-26T20:36:04.912Z,3.43
2018-03-26T20:38:33.320Z,3.37
2018-03-26T20:41:01.705Z,6.73
2018-03-26T20:43:30.128Z,5.27
2018-03-26T20:45:58.484Z,3.90
2018-03-26T20:48:26.917Z,7.13
2018-03-26T20:50:56.187Z,4.37
2018-03-26T20:53:24.549Z,6.43
2018-03-26T20:55:52.933Z,4.77
2018-03-26T20:58:22.765Z,4.60
2018-03-26T21:00:51.158Z,2.10
2018-03-26T21:03:19.532Z,3.53
2018-03-26T21:05:47.958Z,5.03
2018-03-26T21:08:16.379Z,2.93
2018-03-26T21:10:44.758Z,6.97
2018-03-26T21:13:13.174Z,6.10
2018-03-26T21:15:41.551Z,3.47
2018-03-26T21:18:09.934Z,3.60
2018-03-26T21:20:43.643Z,4.18
2018-03-26T21:23:12.060Z,3.30
2018-03-26T21:25:40.480Z,2.43
2018-03-26T21:28:09.795Z,4.03
2018-03-26T21:30:38.184Z,3.07
2018-03-26T21:33:06.614Z,2.92
2018-03-26T21:35:34.997Z,3.90
2018-03-26T21:38:03.534Z,3.23
2018-03-26T21:40:32.040Z,4.00
2018-03-26T21:43:02.544Z,3.28
2018-03-26T21:45:30.936Z,4.80
2018-03-26T21:47:59.475Z,3.97
2018-03-26T21:50:28.008Z,4.23
2018-03-26T21:52:56.436Z,3.30
2018-03-26T21:55:25.007Z,5.70
2018-03-26T21:57:53.469Z,3.27
2018-03-26T22:00:22.084Z,5.17
2018-03-26T22:02:50.471Z,5.00
2018-03-26T22:05:21.781Z,2.55
2018-03-26T22:07:50.131Z,2.60
2018-03-26T22:10:18.559Z,3.13
2018-03-26T22:12:46.985Z,3.70
2018-03-26T22:15:15.384Z,4.83
2018-03-26T22:17:43.946Z,3.65
2018-03-26T22:20:12.510Z,3.73
2018-03-26T22:22:42.334Z,3.17
2018-03-26T22:25:10.909Z,4.73
2018-03-26T22:27:42.628Z,2.40
2018-03-26T22:30:11.194Z,3.10
2018-03-26T22:32:39.562Z,2.53
2018-03-26T22:35:07.931Z,2.72
2018-03-26T22:37:36.478Z,3.57
2018-03-26T22:40:05.063Z,4.93
2018-03-26T22:42:34.193Z,2.60
2018-03-26T22:45:02.602Z,5.10
2018-03-26T22:47:31.180Z,4.97
2018-03-26T22:50:05.821Z,5.17
2018-03-26T22:52:39.652Z,3.63
2018-03-26T22:55:08.233Z,4.37
2018-03-26T22:57:36.781Z,4.43
2018-03-26T23:00:05.353Z,3.63
2018-03-26T23:02:33.736Z,4.13
2018-03-26T23:05:02.139Z,3.80
2018-03-26T23:07:30.565Z,2.42
2018-03-26T23:09:59.108Z,3.17
2018-03-26T23:12:27.892Z,3.17
2018-03-26T23:15:01.715Z,2.37
2018-03-26T23:17:33.586Z,3.33
2018-03-26T23:20:01.962Z,2.77
2018-03-26T23:22:49.155Z,4.10
2018-03-26T23:25:17.619Z,4.50
2018-03-26T23:27:45.988Z,2.50
2018-03-26T23:30:14.418Z,3.70
2018-03-26T23:32:42.801Z,3.17
2018-03-26T23:35:11.188Z,4.50
2018-03-26T23:37:40.559Z,3.23
2018-03-26T23:40:09.077Z,2.50
2018-03-26T23:42:37.464Z,5.10
2018-03-26T23:45:05.842Z,6.20
2018-03-26T23:47:35.153Z,4.13
2018-03-26T23:50:03.591Z,4.13
2018-03-26T23:52:32.013Z,5.00
2018-03-26T23:55:00.358Z,4.63
2018-03-26T23:57:28.899Z,4.63
2018-03-26T23:59:58.774Z,3.40
